Terminal Aerodrome Forecast
Issued by NWS

Home | Current Version | Previous Version | Text Only | Print | Product List | Glossary Off
Versions: 1 2 3 4 5 6 7 8 9 10 11 12 13 14 15 16 17 18 19 20 21 22 23

000
FTUS45 KGGW 261700
TAFOLF
TAF
KOLF 261728Z 2618/2718 VRB05KT P6SM VCSH SCT040 BKN230
     FM270000 12008KT P6SM VCTS SCT040CB BKN200
     FM270600 VRB04KT P6SM SCT060 BKN150
     FM271200 00000KT P6SM VCSH SCT070 BKN150=

USA.gov is the U.S. government's official web portal to all federal, state and local government web resources and services.